Terminal Aerodrome Forecast
Issued by NWS Wilmington, OH

Current Version | Previous Version | Graphics & Text | Print | Product List | Glossary On
Versions: 1 2 3 4 5 6 7 8 9 10 11 12 13 14 15 16 17 18 19 20 21 22 23 24
898
FTUS41 KILN 121457 AAA
TAFCVG
TAF AMD
KCVG 121457Z 1215/1318 21005KT P6SM OVC050
     FM121600 24009KT P6SM OVC035
     FM122100 28012G22KT P6SM -SHSN OVC022
     FM122300 31016G26KT 3SM -SHSN OVC018
     FM130300 31015G24KT P6SM -SHSN OVC022
     FM130600 31012G20KT 5SM -SHSN BKN022
     FM130900 31010KT P6SM BKN035=

USA.gov is the U.S. government's official web portal to all federal, state and local government web resources and services.